createdAt,value
2018-06-15T00:01:04.889Z,11.30
2018-06-15T00:03:33.522Z,12.73
2018-06-15T00:06:01.718Z,12.17
2018-06-15T00:08:30.176Z,12.87
2018-06-15T00:10:58.997Z,12.90
2018-06-15T00:13:27.482Z,12.50
2018-06-15T00:15:56.276Z,13.63
2018-06-15T00:18:27.113Z,12.33
2018-06-15T00:20:55.716Z,12.93
2018-06-15T00:23:24.205Z,12.47
2018-06-15T00:25:52.375Z,13.37
2018-06-15T00:28:20.900Z,12.47
2018-06-15T00:30:49.371Z,13.07
2018-06-15T00:33:17.896Z,13.10
2018-06-15T00:35:46.522Z,12.57
2018-06-15T00:38:14.676Z,13.17
2018-06-15T00:40:43.184Z,13.23
2018-06-15T00:43:11.971Z,14.10
2018-06-15T00:45:40.514Z,13.90
2018-06-15T00:48:09.033Z,13.30
2018-06-15T00:50:37.180Z,13.80
2018-06-15T00:53:05.733Z,13.60
2018-06-15T00:55:34.208Z,13.23
2018-06-15T00:58:02.774Z,13.30
2018-06-15T01:00:31.228Z,13.97
2018-06-15T01:02:59.688Z,14.73
2018-06-15T01:05:28.200Z,14.30
2018-06-15T01:07:56.696Z,15.27
2018-06-15T01:10:25.386Z,15.97
2018-06-15T01:12:53.937Z,16.90
2018-06-15T01:15:22.617Z,15.57
2018-06-15T01:17:51.164Z,16.67
2018-06-15T01:20:19.720Z,16.87
2018-06-15T01:22:48.253Z,18.37
2018-06-15T01:25:16.709Z,18.47
2018-06-15T01:27:45.285Z,18.20
2018-06-15T01:30:13.799Z,18.07
2018-06-15T01:32:42.281Z,18.13
2018-06-15T01:35:11.084Z,19.37
2018-06-15T01:37:39.604Z,18.70
2018-06-15T01:40:08.145Z,18.77
2018-06-15T01:42:36.964Z,18.87
2018-06-15T01:45:05.576Z,18.33
2018-06-15T01:47:34.089Z,18.07
2018-06-15T01:50:02.593Z,18.03
2018-06-15T01:52:31.110Z,17.33
2018-06-15T01:54:59.591Z,16.30
2018-06-15T01:57:28.265Z,16.83
2018-06-15T01:59:57.084Z,15.97
2018-06-15T02:02:25.638Z,16.10
2018-06-15T02:04:54.284Z,15.63
2018-06-15T02:07:22.800Z,16.63
2018-06-15T02:09:51.979Z,15.97
2018-06-15T02:12:20.502Z,14.30
2018-06-15T02:14:49.124Z,14.50
2018-06-15T02:17:17.756Z,13.70
2018-06-15T02:19:46.284Z,14.47
2018-06-15T02:22:14.789Z,15.03
2018-06-15T02:24:43.318Z,15.07
2018-06-15T02:27:11.855Z,13.80
2018-06-15T02:29:40.328Z,14.30
2018-06-15T02:32:08.837Z,14.63
2018-06-15T02:34:37.313Z,13.57
2018-06-15T02:37:06.029Z,14.77
2018-06-15T02:39:34.509Z,13.53
2018-06-15T02:42:03.665Z,14.73
2018-06-15T02:44:32.236Z,13.83
2018-06-15T02:47:00.709Z,14.20
2018-06-15T02:49:29.168Z,13.37
2018-06-15T02:51:57.713Z,13.43
2018-06-15T02:54:26.298Z,13.43
2018-06-15T02:56:54.681Z,13.37
2018-06-15T02:59:22.865Z,14.03
2018-06-15T03:01:51.472Z,14.13
2018-06-15T03:04:19.985Z,13.80
2018-06-15T03:06:48.543Z,13.30
2018-06-15T03:09:17.230Z,14.00
2018-06-15T03:11:45.773Z,14.50
2018-06-15T03:14:14.324Z,13.83
2018-06-15T03:16:42.789Z,14.43
2018-06-15T03:19:11.274Z,14.47
2018-06-15T03:21:39.753Z,14.40
2018-06-15T03:24:08.228Z,14.20
2018-06-15T03:26:36.687Z,13.83
2018-06-15T03:29:05.181Z,14.07
2018-06-15T03:31:33.674Z,13.90
2018-06-15T03:34:02.160Z,13.87
2018-06-15T03:36:30.688Z,14.03
2018-06-15T03:38:59.320Z,12.90
2018-06-15T03:41:28.057Z,13.73
2018-06-15T03:43:56.587Z,13.93
2018-06-15T03:46:25.097Z,14.27
2018-06-15T03:48:53.706Z,13.30
2018-06-15T03:51:22.192Z,13.80
2018-06-15T03:53:50.713Z,14.13
2018-06-15T03:56:19.202Z,14.03
2018-06-15T03:58:47.876Z,15.10
2018-06-15T04:01:16.354Z,14.67
2018-06-15T04:03:44.919Z,14.77
2018-06-15T04:06:13.438Z,13.40
2018-06-15T04:08:41.967Z,14.40
2018-06-15T04:11:10.509Z,13.60
2018-06-15T04:13:39.047Z,13.27
2018-06-15T04:16:07.597Z,13.40
2018-06-15T04:18:36.360Z,12.97
2018-06-15T04:21:04.934Z,15.10
2018-06-15T04:23:33.435Z,13.43
2018-06-15T04:26:02.054Z,15.13
2018-06-15T04:28:30.607Z,14.37
2018-06-15T04:30:59.320Z,14.37
2018-06-15T04:33:27.826Z,15.13
2018-06-15T04:35:56.630Z,15.30
2018-06-15T04:38:24.808Z,14.63
2018-06-15T04:40:53.377Z,15.20
2018-06-15T04:43:22.029Z,16.47
2018-06-15T04:45:50.531Z,15.57
2018-06-15T04:48:19.580Z,14.57
2018-06-15T04:50:48.197Z,14.20
2018-06-15T04:53:16.785Z,13.63
2018-06-15T04:55:45.337Z,12.30
2018-06-15T04:58:13.914Z,11.03
2018-06-15T05:00:42.497Z,10.93
2018-06-15T05:03:14.352Z,10.27
2018-06-15T05:05:44.026Z,9.73
2018-06-15T05:08:12.960Z,8.23
2018-06-15T05:10:41.613Z,8.70
2018-06-15T05:13:10.359Z,8.20
2018-06-15T05:15:39.005Z,8.50
2018-06-15T05:18:07.555Z,7.53
2018-06-15T05:20:36.381Z,7.70
2018-06-15T05:23:05.050Z,6.80
2018-06-15T05:25:33.579Z,7.20
2018-06-15T05:28:01.839Z,7.13
2018-06-15T05:30:30.469Z,7.20
2018-06-15T05:32:59.021Z,6.77
2018-06-15T05:35:27.854Z,7.07
2018-06-15T05:37:56.397Z,7.47
2018-06-15T05:40:25.132Z,8.73
2018-06-15T05:42:53.753Z,7.97
2018-06-15T05:45:22.471Z,7.33
2018-06-15T05:47:51.076Z,7.30
2018-06-15T05:50:19.854Z,7.50
2018-06-15T05:52:48.436Z,7.47
2018-06-15T05:55:17.382Z,8.10
2018-06-15T05:57:46.184Z,7.40
2018-06-15T06:00:15.062Z,8.13
2018-06-15T06:02:43.755Z,8.30
2018-06-15T06:05:12.332Z,8.30
2018-06-15T06:07:41.080Z,7.63
2018-06-15T06:10:09.893Z,8.90
2018-06-15T06:12:38.729Z,8.77
2018-06-15T06:15:07.648Z,8.83
2018-06-15T06:17:36.629Z,8.47
2018-06-15T06:20:07.255Z,8.80
2018-06-15T06:22:35.837Z,9.17
2018-06-15T06:25:04.460Z,8.40
2018-06-15T06:27:33.063Z,7.77
2018-06-15T06:30:01.756Z,8.07
2018-06-15T06:32:30.480Z,8.20
2018-06-15T06:34:59.033Z,9.10
2018-06-15T06:37:27.628Z,8.30
2018-06-15T06:39:56.260Z,9.53
2018-06-15T06:42:24.436Z,8.10
2018-06-15T06:44:53.651Z,9.07
2018-06-15T06:47:22.243Z,8.57
2018-06-15T06:49:51.074Z,7.73
2018-06-15T06:52:19.948Z,7.20
2018-06-15T06:54:48.468Z,7.40
2018-06-15T06:57:17.048Z,6.00
2018-06-15T06:59:45.724Z,6.17
2018-06-15T07:02:14.278Z,5.80
2018-06-15T07:04:42.980Z,5.70
2018-06-15T07:07:11.562Z,5.97
2018-06-15T07:09:40.114Z,5.93
2018-06-15T07:12:11.710Z,5.83
2018-06-15T07:14:40.280Z,5.23
2018-06-15T07:17:09.116Z,6.57
2018-06-15T07:19:37.661Z,6.13
2018-06-15T07:22:06.236Z,6.23
2018-06-15T07:24:35.134Z,6.17
2018-06-15T07:27:04.033Z,7.03
2018-06-15T07:29:32.630Z,7.47
2018-06-15T07:32:01.215Z,7.17
2018-06-15T07:34:29.993Z,7.10
2018-06-15T07:36:58.546Z,7.33
2018-06-15T07:39:27.163Z,7.50
2018-06-15T07:41:55.819Z,7.83
2018-06-15T07:44:24.499Z,7.83
2018-06-15T07:46:53.072Z,7.37
2018-06-15T07:49:21.773Z,7.47
2018-06-15T07:51:50.455Z,7.00
2018-06-15T07:54:19.014Z,6.93
2018-06-15T07:56:47.573Z,7.53
2018-06-15T07:59:16.131Z,6.60
2018-06-15T08:01:44.709Z,6.67
2018-06-15T08:04:13.321Z,6.60
2018-06-15T08:06:42.311Z,7.13
2018-06-15T08:09:10.995Z,6.60
2018-06-15T08:11:39.588Z,6.43
2018-06-15T08:14:08.161Z,7.33
2018-06-15T08:16:36.933Z,6.90
2018-06-15T08:19:05.906Z,6.83
2018-06-15T08:21:34.602Z,5.93
2018-06-15T08:24:03.462Z,5.23
2018-06-15T08:26:32.006Z,5.80
2018-06-15T08:29:00.517Z,6.33
2018-06-15T08:31:29.058Z,5.43
2018-06-15T08:33:58.232Z,5.67
2018-06-15T08:36:26.792Z,5.90
2018-06-15T08:38:54.964Z,5.23
2018-06-15T08:41:23.624Z,5.20
2018-06-15T08:43:52.205Z,5.37
2018-06-15T08:46:21.081Z,5.07
2018-06-15T08:48:50.369Z,5.60
2018-06-15T08:51:19.369Z,5.37
2018-06-15T08:53:48.293Z,4.63
2018-06-15T08:56:17.122Z,3.67
2018-06-15T08:58:45.743Z,3.77
2018-06-15T09:01:14.386Z,4.30
2018-06-15T09:03:43.204Z,3.60
2018-06-15T09:06:11.833Z,2.57
2018-06-15T09:08:40.646Z,2.70
2018-06-15T09:11:09.296Z,3.20
2018-06-15T09:13:37.837Z,3.50
2018-06-15T09:16:06.842Z,3.70
2018-06-15T09:18:35.336Z,3.07
2018-06-15T09:21:04.115Z,2.40
2018-06-15T09:23:32.922Z,2.23
2018-06-15T09:26:01.190Z,2.23
2018-06-15T09:28:30.394Z,2.17
2018-06-15T09:30:59.405Z,1.90
2018-06-15T09:33:28.277Z,2.00
2018-06-15T09:35:56.796Z,1.60
2018-06-15T09:38:25.896Z,2.30
2018-06-15T09:40:54.758Z,1.70
2018-06-15T09:43:23.312Z,1.40
2018-06-15T09:45:51.889Z,1.70
2018-06-15T09:48:20.537Z,1.40
2018-06-15T09:50:49.055Z,1.80
2018-06-15T09:53:17.842Z,1.23
2018-06-15T09:55:46.436Z,1.20
2018-06-15T09:58:15.121Z,1.00
2018-06-15T10:00:49.161Z,1.30
2018-06-15T10:03:18.013Z,1.17
2018-06-15T10:05:46.879Z,1.13
2018-06-15T10:08:15.402Z,1.13
2018-06-15T10:10:44.295Z,1.20
2018-06-15T10:13:12.853Z,1.00
2018-06-15T10:15:41.493Z,1.10
2018-06-15T10:18:10.369Z,1.00
2018-06-15T10:20:38.910Z,1.27
2018-06-15T10:23:07.449Z,1.10
2018-06-15T10:25:36.223Z,1.30
2018-06-15T10:28:04.908Z,1.10
2018-06-15T10:30:33.684Z,0.80
2018-06-15T10:33:02.347Z,0.70
2018-06-15T10:35:31.110Z,0.90
2018-06-15T10:37:59.709Z,1.00
2018-06-15T10:40:28.255Z,1.10
2018-06-15T10:42:56.911Z,1.13
2018-06-15T10:45:25.548Z,1.00
2018-06-15T10:47:54.067Z,1.10
2018-06-15T10:50:22.655Z,1.00
2018-06-15T10:52:51.248Z,0.80
2018-06-15T10:55:20.373Z,1.00
2018-06-15T10:57:48.947Z,1.07
2018-06-15T11:00:17.505Z,1.00
2018-06-15T11:02:46.552Z,1.00
2018-06-15T11:05:15.136Z,1.00
2018-06-15T11:07:44.144Z,1.23
2018-06-15T11:10:13.403Z,1.30
2018-06-15T11:12:42.368Z,1.33
2018-06-15T11:15:10.952Z,1.37
2018-06-15T11:17:39.559Z,1.47
2018-06-15T11:20:08.262Z,1.00
2018-06-15T11:22:37.353Z,1.00
2018-06-15T11:25:06.165Z,1.13
2018-06-15T11:27:34.706Z,1.10
2018-06-15T11:30:03.465Z,1.10
2018-06-15T11:32:32.250Z,1.40
2018-06-15T11:35:01.065Z,1.20
2018-06-15T11:37:29.783Z,1.13
2018-06-15T11:39:58.499Z,1.90
2018-06-15T11:42:27.187Z,1.20
2018-06-15T11:44:55.839Z,1.20
2018-06-15T11:47:24.582Z,1.53
2018-06-15T11:49:53.258Z,1.33
2018-06-15T11:52:21.882Z,1.30
2018-06-15T11:54:50.417Z,1.17
2018-06-15T11:57:18.946Z,1.10
2018-06-15T11:59:47.634Z,1.00
2018-06-15T12:02:16.450Z,1.30
2018-06-15T12:04:45.019Z,1.23
2018-06-15T12:07:14.123Z,1.37
2018-06-15T12:09:42.666Z,1.50
2018-06-15T12:12:11.737Z,1.00
2018-06-15T12:14:40.298Z,1.50
2018-06-15T12:17:08.890Z,1.20
2018-06-15T12:19:37.421Z,1.23
2018-06-15T12:22:06.109Z,1.10
2018-06-15T12:24:34.745Z,1.00
2018-06-15T12:27:03.647Z,1.37
2018-06-15T12:29:31.796Z,1.10
2018-06-15T12:32:00.356Z,1.47
2018-06-15T12:34:28.888Z,1.20
2018-06-15T12:36:57.637Z,1.20
2018-06-15T12:39:26.743Z,1.23
2018-06-15T12:41:55.467Z,1.30
2018-06-15T12:44:24.249Z,1.57
2018-06-15T12:46:52.764Z,1.47
2018-06-15T12:49:21.579Z,1.50
2018-06-15T12:51:50.172Z,1.30
2018-06-15T12:54:18.804Z,1.07
2018-06-15T12:56:47.375Z,1.20
2018-06-15T12:59:15.968Z,1.30
2018-06-15T13:01:44.843Z,1.23
2018-06-15T13:04:13.412Z,1.53
2018-06-15T13:06:41.698Z,1.30
2018-06-15T13:09:11.925Z,1.20
2018-06-15T13:11:40.585Z,1.27
2018-06-15T13:14:09.077Z,1.10
2018-06-15T13:16:37.811Z,1.50
2018-06-15T13:19:06.467Z,1.40
2018-06-15T13:21:36.353Z,1.53
2018-06-15T13:24:04.937Z,1.50
2018-06-15T13:26:33.465Z,1.30
2018-06-15T13:29:02.022Z,1.40
2018-06-15T13:31:30.667Z,1.73
2018-06-15T13:33:59.145Z,1.70
2018-06-15T13:36:27.697Z,1.53
2018-06-15T13:38:56.255Z,1.30
2018-06-15T13:41:24.758Z,1.70
2018-06-15T13:43:53.805Z,1.40
2018-06-15T13:46:22.503Z,1.60
2018-06-15T13:48:51.614Z,1.70
2018-06-15T13:51:20.270Z,1.60
2018-06-15T13:53:48.836Z,1.70
2018-06-15T13:56:17.423Z,1.60
2018-06-15T13:58:45.934Z,1.67
2018-06-15T14:01:14.760Z,1.70
2018-06-15T14:03:43.308Z,1.80
2018-06-15T14:06:11.978Z,1.63
2018-06-15T14:08:40.528Z,1.80
2018-06-15T14:11:09.091Z,2.13
2018-06-15T14:13:37.672Z,1.90
2018-06-15T14:16:06.889Z,2.27
2018-06-15T14:18:35.502Z,1.93
2018-06-15T14:21:04.294Z,2.00
2018-06-15T14:23:32.878Z,2.47
2018-06-15T14:26:01.653Z,1.97
2018-06-15T14:28:30.231Z,2.07
2018-06-15T14:30:58.794Z,2.07
2018-06-15T14:33:27.419Z,2.13
2018-06-15T14:35:56.253Z,1.90
2018-06-15T14:38:24.915Z,1.97
2018-06-15T14:40:53.914Z,2.40
2018-06-15T14:43:22.927Z,2.13
2018-06-15T14:45:51.464Z,1.90
2018-06-15T14:48:20.408Z,1.87
2018-06-15T14:50:49.081Z,2.40
2018-06-15T14:53:18.024Z,2.23
2018-06-15T14:55:46.641Z,2.23
2018-06-15T14:58:15.269Z,2.00
2018-06-15T15:00:43.820Z,1.90
2018-06-15T15:03:12.509Z,2.20
2018-06-15T15:05:41.132Z,2.30
2018-06-15T15:08:09.696Z,2.23
2018-06-15T15:10:38.209Z,2.13
2018-06-15T15:13:06.848Z,2.20
2018-06-15T15:15:35.766Z,2.67
2018-06-15T15:18:04.884Z,2.20
2018-06-15T15:20:34.328Z,2.17
2018-06-15T15:23:03.088Z,2.27
2018-06-15T15:25:32.137Z,2.33
2018-06-15T15:28:00.616Z,2.33
2018-06-15T15:30:29.320Z,2.30
2018-06-15T15:32:57.820Z,2.20
2018-06-15T15:35:26.334Z,2.40
2018-06-15T15:37:54.873Z,2.43
2018-06-15T15:40:23.377Z,2.27
2018-06-15T15:42:51.933Z,2.17
2018-06-15T15:45:20.719Z,2.53
2018-06-15T15:47:49.833Z,2.20
2018-06-15T15:50:18.742Z,2.57
2018-06-15T15:52:47.557Z,2.07
2018-06-15T15:55:16.263Z,2.10
2018-06-15T15:57:45.143Z,2.27
2018-06-15T16:00:13.918Z,1.93
2018-06-15T16:02:42.526Z,2.03
2018-06-15T16:05:11.166Z,2.10
2018-06-15T16:07:39.692Z,2.33
2018-06-15T16:10:08.468Z,1.97
2018-06-15T16:12:37.006Z,2.07
2018-06-15T16:15:05.765Z,2.30
2018-06-15T16:17:34.360Z,2.50
2018-06-15T16:20:02.668Z,2.77
2018-06-15T16:22:31.178Z,2.30
2018-06-15T16:25:00.041Z,2.20
2018-06-15T16:27:28.603Z,2.00
2018-06-15T16:29:57.205Z,2.10
2018-06-15T16:32:25.832Z,2.23
2018-06-15T16:34:54.375Z,2.30
2018-06-15T16:37:23.148Z,1.60
2018-06-15T16:39:51.890Z,2.00
2018-06-15T16:42:20.151Z,2.27
2018-06-15T16:44:49.048Z,1.83
2018-06-15T16:47:17.639Z,1.97
2018-06-15T16:49:46.206Z,2.30
2018-06-15T16:52:15.182Z,2.53
2018-06-15T16:54:44.065Z,2.30
2018-06-15T16:57:13.058Z,2.03
2018-06-15T16:59:41.612Z,1.93
2018-06-15T17:02:10.540Z,1.90
2018-06-15T17:04:39.148Z,2.03
2018-06-15T17:07:07.823Z,2.30
2018-06-15T17:09:36.437Z,2.00
2018-06-15T17:12:05.043Z,2.13
2018-06-15T17:14:33.602Z,2.57
2018-06-15T17:17:02.185Z,2.30
2018-06-15T17:19:30.763Z,1.73
2018-06-15T17:21:59.287Z,2.23
2018-06-15T17:24:28.067Z,2.50
2018-06-15T17:26:56.798Z,2.40
2018-06-15T17:29:25.363Z,1.90
2018-06-15T17:31:54.079Z,1.80
2018-06-15T17:34:22.833Z,2.40
2018-06-15T17:36:51.588Z,1.63
2018-06-15T17:39:20.161Z,2.00
2018-06-15T17:41:48.732Z,1.97
2018-06-15T17:44:17.372Z,2.57
2018-06-15T17:46:46.130Z,2.00
2018-06-15T17:49:14.698Z,2.00
2018-06-15T17:51:43.421Z,2.00
2018-06-15T17:54:11.957Z,1.90
2018-06-15T17:56:40.795Z,2.00
2018-06-15T17:59:09.479Z,1.90
2018-06-15T18:01:38.370Z,2.23
2018-06-15T18:04:06.549Z,2.00
2018-06-15T18:06:35.342Z,2.47
2018-06-15T18:09:05.633Z,2.03
2018-06-15T18:11:34.119Z,1.77
2018-06-15T18:14:03.251Z,1.90
2018-06-15T18:16:31.802Z,2.03
2018-06-15T18:19:00.373Z,2.10
2018-06-15T18:21:28.969Z,1.80
2018-06-15T18:23:57.595Z,1.83
2018-06-15T18:26:26.111Z,2.00
2018-06-15T18:28:54.829Z,2.20
2018-06-15T18:31:23.390Z,2.30
2018-06-15T18:33:52.909Z,2.67
2018-06-15T18:36:21.430Z,2.50
2018-06-15T18:38:49.919Z,2.40
2018-06-15T18:41:18.909Z,2.10
2018-06-15T18:43:47.376Z,2.23
2018-06-15T18:46:15.929Z,2.30
2018-06-15T18:48:44.487Z,2.40
2018-06-15T18:51:13.069Z,2.50
2018-06-15T18:53:41.700Z,3.07
2018-06-15T18:56:10.419Z,2.73
2018-06-15T18:58:38.964Z,2.50
2018-06-15T19:01:08.101Z,2.47
2018-06-15T19:03:36.641Z,2.57
2018-06-15T19:06:05.242Z,2.60
2018-06-15T19:08:33.785Z,3.00
2018-06-15T19:11:01.999Z,2.83
2018-06-15T19:13:30.550Z,3.00
2018-06-15T19:15:59.069Z,3.83
2018-06-15T19:18:27.625Z,2.90
2018-06-15T19:20:56.636Z,3.90
2018-06-15T19:23:25.298Z,4.90
2018-06-15T19:25:53.920Z,4.00
2018-06-15T19:28:22.454Z,3.53
2018-06-15T19:30:50.983Z,3.07
2018-06-15T19:33:19.620Z,2.90
2018-06-15T19:35:48.157Z,3.03
2018-06-15T19:38:16.786Z,2.53
2018-06-15T19:40:45.345Z,2.53
2018-06-15T19:43:13.890Z,2.70
2018-06-15T19:45:42.809Z,2.50
2018-06-15T19:48:11.371Z,2.80
2018-06-15T19:50:39.916Z,2.70
2018-06-15T19:53:08.558Z,2.90
2018-06-15T19:55:43.864Z,2.83
2018-06-15T19:58:12.365Z,3.87
2018-06-15T20:00:41.002Z,3.27
2018-06-15T20:03:09.586Z,2.47
2018-06-15T20:05:38.457Z,2.50
2018-06-15T20:08:06.998Z,2.40
2018-06-15T20:10:35.953Z,2.70
2018-06-15T20:13:04.437Z,2.43
2018-06-15T20:15:33.249Z,2.97
2018-06-15T20:18:01.819Z,2.57
2018-06-15T20:20:30.425Z,2.50
2018-06-15T20:22:58.941Z,2.77
2018-06-15T20:25:27.485Z,2.30
2018-06-15T20:27:55.997Z,2.97
2018-06-15T20:30:24.521Z,2.67
2018-06-15T20:32:53.067Z,4.03
2018-06-15T20:35:21.733Z,3.30
2018-06-15T20:37:49.897Z,3.33
2018-06-15T20:40:18.481Z,3.20
2018-06-15T20:42:47.052Z,3.03
2018-06-15T20:45:15.587Z,2.97
2018-06-15T20:47:44.071Z,3.10
2018-06-15T20:50:12.674Z,3.07
2018-06-15T20:52:41.156Z,3.03
2018-06-15T20:55:09.645Z,3.13
2018-06-15T20:57:38.157Z,2.83
2018-06-15T21:00:06.723Z,3.70
2018-06-15T21:02:35.624Z,3.80
2018-06-15T21:05:04.237Z,4.33
2018-06-15T21:07:32.828Z,4.33
2018-06-15T21:10:01.446Z,3.10
2018-06-15T21:12:29.988Z,3.00
2018-06-15T21:14:59.789Z,3.30
2018-06-15T21:17:27.965Z,3.10
2018-06-15T21:19:56.505Z,3.33
2018-06-15T21:22:25.057Z,3.20
2018-06-15T21:24:53.540Z,2.70
2018-06-15T21:27:22.126Z,3.07
2018-06-15T21:29:51.040Z,3.07
2018-06-15T21:32:19.621Z,3.17
2018-06-15T21:34:48.105Z,2.90
2018-06-15T21:37:16.409Z,2.93
2018-06-15T21:39:51.664Z,3.40
2018-06-15T21:42:20.192Z,2.70
2018-06-15T21:44:49.197Z,2.90
2018-06-15T21:47:18.074Z,3.50
2018-06-15T21:49:46.563Z,3.77
2018-06-15T21:52:15.317Z,3.33
2018-06-15T21:54:43.567Z,2.93
2018-06-15T21:57:12.061Z,3.53
2018-06-15T21:59:40.589Z,3.57
2018-06-15T22:02:09.168Z,3.57
2018-06-15T22:04:37.688Z,3.83
2018-06-15T22:07:06.194Z,3.77
2018-06-15T22:09:34.779Z,3.90
2018-06-15T22:12:03.469Z,3.87
2018-06-15T22:14:32.064Z,3.70
2018-06-15T22:17:00.726Z,3.97
2018-06-15T22:19:29.497Z,3.67
2018-06-15T22:21:58.020Z,3.47
2018-06-15T22:24:26.716Z,3.80
2018-06-15T22:26:55.372Z,3.47
2018-06-15T22:29:23.836Z,3.83
2018-06-15T22:31:52.312Z,4.20
2018-06-15T22:34:20.802Z,4.10
2018-06-15T22:36:49.325Z,3.80
2018-06-15T22:39:17.876Z,4.50
2018-06-15T22:41:46.457Z,4.27
2018-06-15T22:44:15.045Z,4.60
2018-06-15T22:46:43.668Z,4.17
2018-06-15T22:49:12.708Z,4.70
2018-06-15T22:51:41.994Z,4.83
2018-06-15T22:54:10.684Z,4.43
2018-06-15T22:56:39.309Z,5.10
2018-06-15T22:59:07.885Z,5.00
2018-06-15T23:01:36.369Z,5.00
2018-06-15T23:04:04.628Z,4.73
2018-06-15T23:06:33.238Z,4.97
2018-06-15T23:09:01.770Z,5.20
2018-06-15T23:11:30.404Z,4.87
2018-06-15T23:13:58.680Z,5.07
2018-06-15T23:16:27.289Z,5.43
2018-06-15T23:18:55.967Z,5.00
2018-06-15T23:21:24.509Z,5.70
2018-06-15T23:23:52.857Z,5.43
2018-06-15T23:26:21.323Z,5.17
2018-06-15T23:28:49.840Z,5.60
2018-06-15T23:31:18.357Z,5.60
2018-06-15T23:33:47.191Z,5.20
2018-06-15T23:36:15.750Z,4.93
2018-06-15T23:38:44.336Z,5.67
2018-06-15T23:41:12.809Z,5.37
2018-06-15T23:43:41.376Z,5.07
2018-06-15T23:46:09.944Z,5.20
2018-06-15T23:48:38.468Z,4.70
2018-06-15T23:51:07.357Z,4.43
2018-06-15T23:53:35.835Z,4.70
2018-06-15T23:56:04.519Z,4.47
2018-06-15T23:58:32.988Z,5.30
